< < Back
Terminal Aerodrome Forecast


Current Version              Previous Versions:   1  2  3  4  5  6  7  8  9  

Terminal Aerodrome Forecast

205
FTUS42 KGSP 302300
TAFGSP
TAF
KGSP 302337Z 0100/0124 16003KT P6SM FEW050
     FM010400 00000KT P6SM SCT250
     FM011700 20004KT P6SM FEW050 SCT250=



Latest METAR

794
SAUS70 KWBC 020200 RRN
MTRGSP
METAR KGSP 020153Z 00000KT 10SM CLR 19/17 A3002 RMK AO2 SLP158
T01940172


USA.gov is the U.S. government's official web portal to all federal, state and local government web resources and services.